Time;durP1;ratioP1;P1;durP2;ratioP2;P2;SDS_P1;SDS_P2;PMS_P1;PMS_P2;Temp;Humidity;BMP_temperature;BMP_pressure;BME280_temperature;BME280_humidity;BME280_pressure;Samples;Min_cycle;Max_cycle;Signal;HPM_P1;HPM_P2
2021/10/23 00:00:00;;;;;;;121.13;56.80;;;;;;;7.83;79.46;100441.15;1658652;85;21368;-57
2021/10/23 00:03:06;;;;;;;118.10;54.75;;;;;;;7.83;79.63;100440.28;1711890;83;21213;-56
2021/10/23 00:06:11;;;;;;;127.47;57.88;;;;;;;7.82;79.78;100434.50;1658182;86;21367;-56
2021/10/23 00:09:17;;;;;;;127.38;56.53;;;;;;;7.82;79.93;100443.50;1711824;83;21262;-57
2021/10/23 00:12:23;;;;;;;122.47;58.80;;;;;;;7.82;79.95;100438.05;1658605;85;21209;-56
2021/10/23 00:15:30;;;;;;;134.97;60.23;;;;;;;7.81;80.02;100430.04;1711570;83;21189;-56
2021/10/23 00:18:35;;;;;;;120.50;52.73;;;;;;;7.77;80.01;100434.11;1655369;85;21379;-58
2021/10/23 00:21:44;;;;;;;115.92;50.70;;;;;;;7.71;80.15;100429.29;1711129;83;21736;-58
2021/10/23 00:24:50;;;;;;;100.85;47.03;;;;;;;7.68;80.39;100439.11;1656653;86;21221;-58
2021/10/23 00:27:57;;;;;;;98.97;46.15;;;;;;;7.68;80.50;100439.97;1710374;83;21335;-57
2021/10/23 00:31:04;;;;;;;106.32;49.75;;;;;;;7.70;80.64;100422.11;1656803;86;21236;-57
2021/10/23 00:34:09;;;;;;;122.00;50.33;;;;;;;7.72;80.70;100408.70;1710181;83;21259;-58
2021/10/23 00:37:15;;;;;;;103.50;48.48;;;;;;;7.71;80.70;100406.13;1666659;82;21387;-56
2021/10/23 00:40:20;;;;;;;103.00;46.85;;;;;;;7.70;80.56;100409.84;1709229;84;21255;-57
2021/10/23 00:43:26;;;;;;;83.47;40.17;;;;;;;7.65;80.50;100422.58;1709241;83;21290;-57
2021/10/23 00:46:32;;;;;;;82.65;39.78;;;;;;;7.67;80.66;100426.51;1709222;83;21730;-57
2021/10/23 00:49:38;;;;;;;85.22;40.30;;;;;;;7.68;80.69;100410.50;1720778;83;21859;-57
2021/10/23 00:52:43;;;;;;;87.70;41.42;;;;;;;7.68;80.74;100391.43;1711580;83;21204;-57
2021/10/23 00:55:49;;;;;;;82.53;42.15;;;;;;;7.72;80.71;100399.66;1677511;85;21339;-57
2021/10/23 00:58:54;;;;;;;68.50;34.63;;;;;;;7.71;80.59;100407.49;1711839;84;21358;-57
2021/10/23 01:01:59;;;;;;;70.83;34.03;;;;;;;7.68;80.56;100401.83;1721966;83;21326;-57
2021/10/23 01:05:08;;;;;;;73.50;35.52;;;;;;;7.69;80.56;100410.34;1711962;83;21385;-57
2021/10/23 01:08:15;;;;;;;69.22;36.15;;;;;;;7.71;80.56;100405.60;1677162;85;21229;-57
2021/10/23 01:11:22;;;;;;;65.28;34.27;;;;;;;7.74;80.55;100406.64;1711324;84;21348;-57
2021/10/23 01:14:31;;;;;;;58.20;31.33;;;;;;;7.74;80.43;100405.28;1711535;83;21275;-57
2021/10/23 01:17:36;;;;;;;62.83;32.75;;;;;;;7.78;80.31;100404.47;1721519;83;21334;-58
2021/10/23 01:20:41;;;;;;;59.00;30.52;;;;;;;7.75;80.12;100398.84;1711412;83;21425;-57
2021/10/23 01:23:46;;;;;;;61.80;31.70;;;;;;;7.78;80.14;100402.61;1711689;83;21441;-60
2021/10/23 01:26:52;;;;;;;59.23;30.43;;;;;;;7.81;80.12;100394.61;1712134;83;21188;-59
2021/10/23 01:29:57;;;;;;;58.98;29.25;;;;;;;7.83;80.04;100390.73;1677290;85;21260;-57
2021/10/23 01:33:05;;;;;;;51.05;29.40;;;;;;;7.83;79.92;100391.23;1712009;84;21349;-58
2021/10/23 01:36:21;;;;;;;57.98;30.32;;;;;;;7.82;79.92;100386.80;1712216;83;21349;-57
2021/10/23 01:39:28;;;;;;;59.05;28.50;;;;;;;7.79;79.89;100389.32;1718014;80;21349;-57
2021/10/23 01:42:33;;;;;;;52.58;29.18;;;;;;;7.78;79.79;100386.76;1715226;83;21184;-57
2021/10/23 01:45:39;;;;;;;53.35;29.32;;;;;;;7.77;79.89;100382.34;1716748;83;21361;-57
2021/10/23 01:48:46;;;;;;;51.02;28.62;;;;;;;7.75;79.85;100372.95;1717171;83;21416;-57
2021/10/23 01:51:51;;;;;;;66.75;35.20;;;;;;;7.73;79.85;100379.06;1716782;83;21318;-57
2021/10/23 01:54:57;;;;;;;60.10;33.85;;;;;;;7.67;79.74;100387.88;1716821;83;21409;-57
2021/10/23 01:58:03;;;;;;;69.22;35.48;;;;;;;7.63;79.91;100392.77;1717110;83;21237;-57
2021/10/23 02:01:08;;;;;;;62.30;34.83;;;;;;;7.60;79.97;100386.28;1717053;83;21184;-57
2021/10/23 02:04:15;;;;;;;60.52;33.63;;;;;;;7.58;80.06;100384.70;1716934;83;21365;-56
2021/10/23 02:07:21;;;;;;;60.65;34.78;;;;;;;7.57;80.21;100388.45;1716868;83;21373;-57
2021/10/23 02:10:27;;;;;;;58.95;32.00;;;;;;;7.59;80.34;100400.89;1716812;83;21192;-57
2021/10/23 02:13:32;;;;;;;67.70;34.53;;;;;;;7.62;80.32;100403.83;1716761;83;21299;-57
2021/10/23 02:16:38;;;;;;;68.67;33.80;;;;;;;7.61;80.17;100402.96;1717148;83;21357;-56
2021/10/23 02:19:45;;;;;;;65.72;34.83;;;;;;;7.61;79.95;100394.79;1716888;83;21412;-57
2021/10/23 02:22:50;;;;;;;103.35;46.75;;;;;;;7.59;79.73;100409.59;1716751;83;21390;-58
2021/10/23 02:25:56;;;;;;;94.85;42.70;;;;;;;7.56;79.79;100406.66;1716906;83;21357;-58
2021/10/23 02:29:01;;;;;;;93.58;44.98;;;;;;;7.55;79.75;100410.90;1716776;83;21349;-57
2021/10/23 02:32:07;;;;;;;104.90;47.23;;;;;;;7.54;79.68;100414.65;1716968;83;21160;-58
2021/10/23 02:35:12;;;;;;;106.20;47.00;;;;;;;7.52;79.51;100418.89;1716824;83;21330;-59
2021/10/23 02:38:18;;;;;;;99.60;46.83;;;;;;;7.48;79.44;100416.64;1716696;83;21179;-58
2021/10/23 02:41:24;;;;;;;106.32;49.70;;;;;;;7.44;79.52;100412.50;1684414;85;21374;-59
2021/10/23 02:44:30;;;;;;;107.63;48.85;;;;;;;7.40;79.47;100420.11;1684391;85;21359;-58
2021/10/23 02:47:36;;;;;;;112.03;48.13;;;;;;;7.36;79.50;100419.22;1684198;85;21406;-58
2021/10/23 02:50:41;;;;;;;110.97;48.73;;;;;;;7.32;79.69;100425.50;1684404;85;21253;-57
2021/10/23 02:53:47;;;;;;;104.70;46.63;;;;;;;7.31;79.72;100420.18;1684388;85;21256;-56
2021/10/23 02:56:54;;;;;;;97.35;47.90;;;;;;;7.27;79.88;100423.74;1684323;85;21223;-56
2021/10/23 02:59:59;;;;;;;97.55;44.67;;;;;;;7.26;79.96;100422.01;1684355;85;21244;-56
2021/10/23 03:03:05;;;;;;;107.35;46.95;;;;;;;7.24;80.08;100425.41;1684438;85;21291;-57
2021/10/23 03:06:12;;;;;;;109.15;48.92;;;;;;;7.24;80.08;100424.55;1684409;85;21699;-57
2021/10/23 03:09:20;;;;;;;114.17;46.88;;;;;;;7.23;80.08;100417.41;1684511;85;21418;-57
2021/10/23 03:12:30;;;;;;;106.83;48.05;;;;;;;7.21;80.17;100421.64;1684395;85;21351;-57
2021/10/23 03:15:33;;;;;;;112.28;45.43;;;;;;;7.20;80.21;100418.55;1684366;85;21335;-58
2021/10/23 03:18:39;;;;;;;104.72;46.00;;;;;;;7.20;80.27;100419.91;1684430;85;21260;-57
2021/10/23 03:21:44;;;;;;;95.17;45.38;;;;;;;7.20;80.17;100415.83;1663645;85;21395;-56
2021/10/23 03:24:50;;;;;;;86.35;41.37;;;;;;;7.22;80.23;100420.62;1684369;85;21264;-57
2021/10/23 03:27:56;;;;;;;100.82;44.03;;;;;;;7.22;80.24;100419.26;1684331;85;21382;-56
2021/10/23 03:31:03;;;;;;;87.30;41.90;;;;;;;7.25;80.22;100418.95;1684359;85;21982;-57
2021/10/23 03:34:09;;;;;;;84.58;42.50;;;;;;;7.26;80.17;100422.53;1684374;85;21358;-57
2021/10/23 03:37:14;;;;;;;96.63;46.53;;;;;;;7.28;80.16;100419.13;1684292;85;21323;-59
2021/10/23 03:40:20;;;;;;;168.57;77.90;;;;;;;7.30;80.20;100427.52;1693093;81;21207;-56
2021/10/23 03:43:25;;;;;;;129.38;61.10;;;;;;;7.33;80.14;100427.70;1716704;83;21354;-56
2021/10/23 03:46:32;;;;;;;125.38;59.48;;;;;;;7.34;80.08;100427.55;1716437;83;21354;-59
2021/10/23 03:49:42;;;;;;;131.55;62.15;;;;;;;7.33;80.02;100427.20;1697418;83;21218;-56
2021/10/23 03:52:47;;;;;;;132.32;60.90;;;;;;;7.33;80.05;100420.89;1679882;85;21229;-57
2021/10/23 03:55:51;;;;;;;141.82;64.10;;;;;;;7.31;80.23;100417.45;1716787;83;21200;-57
2021/10/23 03:58:56;;;;;;;136.70;61.65;;;;;;;7.29;80.24;100420.86;1716646;83;21425;-57
2021/10/23 04:02:03;;;;;;;132.12;62.75;;;;;;;7.29;80.28;100417.61;1716920;83;21274;-56
2021/10/23 04:05:09;;;;;;;137.20;59.50;;;;;;;7.26;80.25;100423.89;1716859;83;21334;-57
2021/10/23 04:08:14;;;;;;;127.53;57.00;;;;;;;7.22;80.25;100433.37;1716690;83;21333;-57
2021/10/23 04:11:20;;;;;;;133.87;59.77;;;;;;;7.19;80.37;100429.09;1716862;83;21917;-57
2021/10/23 04:14:26;;;;;;;109.75;52.15;;;;;;;7.16;80.25;100425.81;1679922;85;21918;-59
2021/10/23 04:17:32;;;;;;;109.37;51.28;;;;;;;7.14;80.40;100423.25;1716688;83;21174;-58
2021/10/23 04:20:39;;;;;;;101.78;48.20;;;;;;;7.15;80.40;100435.01;1716759;83;21235;-58
2021/10/23 04:23:44;;;;;;;92.17;45.08;;;;;;;7.14;80.55;100440.08;1716771;83;21353;-57
2021/10/23 04:26:53;;;;;;;100.40;46.33;;;;;;;7.18;80.71;100445.59;1697598;83;21243;-57
2021/10/23 04:29:59;;;;;;;96.32;46.68;;;;;;;7.20;80.59;100446.27;1716980;83;21267;-57
2021/10/23 04:33:04;;;;;;;93.17;45.65;;;;;;;7.22;80.56;100454.65;1716681;83;21346;-57
2021/10/23 04:36:10;;;;;;;103.02;51.33;;;;;;;7.24;80.68;100464.89;1715836;83;21406;-56
2021/10/23 04:39:15;;;;;;;103.90;50.17;;;;;;;7.27;80.73;100463.22;1667280;83;21207;-57
2021/10/23 04:42:20;;;;;;;85.38;45.52;;;;;;;7.32;80.67;100479.09;1660155;82;21284;-57
2021/10/23 04:45:25;;;;;;;94.10;45.80;;;;;;;7.34;80.57;100488.81;1640885;86;21347;-58
2021/10/23 04:48:30;;;;;;;83.20;43.85;;;;;;;7.37;80.43;100496.67;1675255;85;21378;-57
2021/10/23 04:51:36;;;;;;;85.60;41.00;;;;;;;7.37;80.35;100498.03;1658281;86;21181;-57
2021/10/23 04:54:43;;;;;;;69.45;38.20;;;;;;;7.41;80.38;100499.95;1655849;86;21249;-56
2021/10/23 04:57:49;;;;;;;65.97;35.15;;;;;;;7.45;80.37;100502.73;1657199;86;22065;-58
2021/10/23 05:00:56;;;;;;;67.92;37.35;;;;;;;7.48;80.36;100515.52;1647591;86;21778;-55
2021/10/23 05:04:01;;;;;;;73.02;41.10;;;;;;;7.53;80.31;100515.92;1629460;86;21292;-57
2021/10/23 05:07:08;;;;;;;75.10;41.35;;;;;;;7.57;80.37;100517.84;1602095;85;21193;-57
2021/10/23 05:10:16;;;;;;;74.40;38.30;;;;;;;7.63;80.38;100525.39;1652155;86;21233;-57
2021/10/23 05:13:23;;;;;;;70.57;37.40;;;;;;;7.70;80.50;100529.73;1653202;86;21243;-57
2021/10/23 05:16:28;;;;;;;62.67;33.33;;;;;;;7.78;80.53;100537.49;1644983;86;21602;-57
2021/10/23 05:19:34;;;;;;;59.73;34.70;;;;;;;7.87;80.52;100535.20;1647940;86;21247;-59
2021/10/23 05:22:39;;;;;;;58.20;33.80;;;;;;;7.97;80.49;100540.58;1656548;86;21205;-56
2021/10/23 05:25:45;;;;;;;53.05;31.87;;;;;;;8.05;80.49;100534.70;1656732;86;21225;-58
2021/10/23 05:28:52;;;;;;;46.55;31.15;;;;;;;8.16;80.48;100536.33;1656641;86;21299;-58
2021/10/23 05:31:58;;;;;;;47.10;31.52;;;;;;;8.28;80.40;100538.69;1658645;85;21212;-58
2021/10/23 05:35:05;;;;;;;46.98;30.25;;;;;;;8.40;80.27;100536.58;1656407;86;21232;-58
2021/10/23 05:38:11;;;;;;;48.90;27.13;;;;;;;8.53;80.08;100537.03;1656470;86;21271;-58
2021/10/23 05:41:16;;;;;;;46.88;26.10;;;;;;;8.63;79.88;100528.21;1656670;86;21621;-58
2021/10/23 05:44:21;;;;;;;42.83;25.97;;;;;;;8.73;79.72;100527.61;1657392;83;21414;-59
2021/10/23 05:47:27;;;;;;;40.45;24.80;;;;;;;8.81;79.62;100539.45;1655153;86;21386;-60
2021/10/23 05:50:32;;;;;;;63.13;35.00;;;;;;;8.91;79.23;100542.06;1655332;86;21355;-60
2021/10/23 05:53:39;;;;;;;73.15;41.90;;;;;;;8.97;78.79;100545.51;1655418;85;21391;-59
2021/10/23 05:56:43;;;;;;;67.62;35.90;;;;;;;9.00;78.34;100543.32;1655429;86;21355;-58
2021/10/23 05:59:49;;;;;;;55.20;33.45;;;;;;;9.00;77.99;100546.05;1628327;86;21748;-61
2021/10/23 06:02:57;;;;;;;67.80;37.42;;;;;;;9.00;77.78;100547.91;1628099;86;21240;-60
2021/10/23 06:06:03;;;;;;;65.40;39.58;;;;;;;9.00;77.63;100547.91;1627868;88;21793;-61
2021/10/23 06:09:10;;;;;;;86.53;47.73;;;;;;;8.99;77.55;100535.30;1627990;86;21229;-61
2021/10/23 06:12:15;;;;;;;71.97;38.08;;;;;;;8.99;77.43;100549.78;1628072;88;21299;-62
2021/10/23 06:15:21;;;;;;;81.22;39.00;;;;;;;8.98;77.37;100544.48;1628034;88;21277;-62
2021/10/23 06:18:28;;;;;;;58.75;31.55;;;;;;;8.96;77.23;100556.93;1639763;85;21237;-61
2021/10/23 06:21:35;;;;;;;45.83;27.17;;;;;;;8.94;77.20;100597.18;1654662;86;21822;-61
2021/10/23 06:24:42;;;;;;;42.88;27.30;;;;;;;8.89;77.07;100595.96;1654897;85;21201;-64
2021/10/23 06:27:48;;;;;;;46.05;26.35;;;;;;;8.83;77.10;100605.63;1651853;85;21359;-62
2021/10/23 06:30:54;;;;;;;57.35;31.27;;;;;;;8.81;77.25;100594.53;1646147;86;21273;-63
2021/10/23 06:34:02;;;;;;;56.37;32.65;;;;;;;8.76;77.42;100598.24;1635968;86;21379;-61
2021/10/23 06:37:09;;;;;;;50.23;27.45;;;;;;;8.76;77.71;100595.52;1628891;88;21240;-62
2021/10/23 06:40:17;;;;;;;41.75;25.68;;;;;;;8.76;77.91;100595.52;1647288;86;21272;-59
2021/10/23 06:43:25;;;;;;;40.73;25.75;;;;;;;8.78;78.08;100594.33;1655885;83;21312;-61
2021/10/23 06:46:30;;;;;;;51.58;29.02;;;;;;;8.85;78.20;100602.24;1706396;83;21320;-62
2021/10/23 06:49:36;;;;;;;68.15;36.28;;;;;;;8.92;78.14;100598.37;1705531;82;21205;-60
2021/10/23 06:52:42;;;;;;;71.10;36.65;;;;;;;8.97;78.04;100592.76;1705289;84;21291;-61
2021/10/23 06:55:47;;;;;;;66.50;32.80;;;;;;;9.01;77.97;100586.48;1704251;84;21215;-61
2021/10/23 06:58:52;;;;;;;64.37;33.65;;;;;;;9.04;77.79;100576.59;1704854;82;21786;-62
2021/10/23 07:01:58;;;;;;;48.38;28.50;;;;;;;9.10;77.58;100570.52;1703616;84;21213;-63
2021/10/23 07:05:06;;;;;;;40.58;24.70;;;;;;;9.19;77.46;100580.95;1704120;84;21268;-62
2021/10/23 07:08:13;;;;;;;42.15;23.85;;;;;;;9.29;77.22;100589.89;1704288;82;21701;-61
2021/10/23 07:11:18;;;;;;;37.50;23.35;;;;;;;9.41;76.95;100599.01;1704800;84;21786;-61
2021/10/23 07:14:24;;;;;;;37.90;21.68;;;;;;;9.54;76.68;100602.16;1706447;82;21243;-61
2021/10/23 07:17:31;;;;;;;38.83;21.27;;;;;;;9.67;76.24;100601.70;1704795;82;21168;-63
2021/10/23 07:20:36;;;;;;;37.42;23.18;;;;;;;9.82;75.89;100601.39;1705031;84;21263;-62
2021/10/23 07:23:42;;;;;;;40.70;21.93;;;;;;;9.99;75.65;100599.91;1704726;84;21573;-60
2021/10/23 07:26:46;;;;;;;36.98;21.37;;;;;;;10.20;75.11;100604.95;1705046;84;21225;-61
2021/10/23 07:29:52;;;;;;;35.28;19.70;;;;;;;10.40;74.26;100594.05;1706268;84;21217;-58
2021/10/23 07:32:58;;;;;;;34.18;19.32;;;;;;;10.63;73.51;100595.58;1706587;84;21197;-58
2021/10/23 07:36:02;;;;;;;34.20;20.57;;;;;;;10.86;72.59;100589.23;1706455;84;21237;-59
2021/10/23 07:39:08;;;;;;;32.10;20.60;;;;;;;11.09;71.79;100594.86;1687038;83;21228;-59
2021/10/23 07:42:14;;;;;;;18.90;12.88;;;;;;;11.26;71.07;100600.14;1704272;84;21752;-60
2021/10/23 07:45:21;;;;;;;19.45;9.83;;;;;;;11.45;68.44;100604.36;1711058;80;21267;-60
2021/10/23 07:48:26;;;;;;;17.67;9.43;;;;;;;11.63;65.72;100603.16;1657971;85;21260;-59
2021/10/23 07:51:26;;;;;;;16.32;8.93;;;;;;;11.84;63.50;100606.66;1711476;83;21704;-60
2021/10/23 07:54:32;;;;;;;19.20;9.00;;;;;;;12.07;61.28;100607.56;1711984;83;21343;-59
2021/10/23 07:57:38;;;;;;;15.15;9.03;;;;;;;12.27;59.91;100612.95;1656332;86;21249;-59
2021/10/23 08:00:45;;;;;;;18.10;9.10;;;;;;;12.49;59.10;100612.11;1695074;84;21354;-60
2021/10/23 08:03:52;;;;;;;18.85;8.63;;;;;;;12.69;58.11;100611.08;1701428;83;21264;-60
2021/10/23 08:07:02;;;;;;;16.20;8.60;;;;;;;12.85;56.83;100610.45;1689512;84;21210;-60
2021/10/23 08:10:06;;;;;;;21.68;12.88;;;;;;;13.01;55.31;100603.98;1719067;82;21217;-60
2021/10/23 08:13:13;;;;;;;21.57;10.45;;;;;;;13.15;54.16;100608.13;1657347;85;21293;-58
2021/10/23 08:16:21;;;;;;;9.05;4.92;;;;;;;13.31;52.66;100614.84;1710954;83;21200;-59
2021/10/23 08:19:30;;;;;;;9.05;4.65;;;;;;;13.45;49.06;100621.39;1657128;85;21387;-59
2021/10/23 08:22:35;;;;;;;16.85;8.83;;;;;;;13.58;47.55;100617.98;1710304;83;21172;-61
2021/10/23 08:25:41;;;;;;;11.75;4.65;;;;;;;13.73;46.70;100622.97;1658133;85;21206;-60
2021/10/23 08:28:47;;;;;;;9.55;3.77;;;;;;;13.89;45.87;100621.41;1703238;82;21213;-61
2021/10/23 08:31:55;;;;;;;7.20;3.60;;;;;;;14.01;44.85;100623.98;1706183;82;21157;-63
2021/10/23 08:35:00;;;;;;;8.95;3.75;;;;;;;14.10;44.37;100624.20;1649352;85;21224;-60
2021/10/23 08:38:05;;;;;;;10.13;3.80;;;;;;;14.17;43.98;100624.63;1711544;83;21242;-62
2021/10/23 08:41:12;;;;;;;6.15;2.90;;;;;;;14.25;43.08;100616.81;1733258;83;21887;-61
2021/10/23 08:44:18;;;;;;;7.33;3.83;;;;;;;14.29;42.39;100631.88;1730737;81;21350;-62
2021/10/23 08:47:24;;;;;;;9.50;3.80;;;;;;;14.34;42.38;100639.05;1739116;79;21382;-64
2021/10/23 08:50:30;;;;;;;6.87;4.20;;;;;;;14.37;42.05;100642.78;1704933;82;21201;-63
2021/10/23 08:53:35;;;;;;;5.75;3.83;;;;;;;14.40;42.46;100636.88;1685179;84;21271;-62
2021/10/23 08:56:41;;;;;;;10.50;4.30;;;;;;;14.41;42.43;100627.59;1722561;83;21192;-61
2021/10/23 08:59:49;;;;;;;7.05;3.90;;;;;;;14.41;42.34;100630.34;1719677;82;21548;-62
2021/10/23 09:02:54;;;;;;;9.25;3.87;;;;;;;14.39;42.23;100632.44;1690411;82;21383;-62
2021/10/23 09:06:00;;;;;;;11.03;4.87;;;;;;;14.37;42.05;100631.77;1698837;84;21196;-62
2021/10/23 09:09:16;;;;;;;9.85;4.95;;;;;;;14.35;41.99;100624.25;1705783;82;21227;-62
2021/10/23 09:12:41;;;;;;;10.48;4.12;;;;;;;14.35;42.04;100625.62;1706209;84;21215;-62
2021/10/23 09:15:49;;;;;;;8.80;3.83;;;;;;;14.33;42.17;100625.82;1706183;84;21195;-62
2021/10/23 09:18:56;;;;;;;11.97;4.00;;;;;;;14.33;41.85;100622.20;1705645;82;21209;-63
2021/10/23 09:22:02;;;;;;;6.28;2.60;;;;;;;14.34;41.67;100615.12;1705823;84;21184;-62
2021/10/23 09:25:35;;;;;;;4.65;2.60;;;;;;;14.34;41.03;100621.14;1706211;84;21193;-62
2021/10/23 09:28:41;;;;;;;8.75;3.22;;;;;;;14.34;41.04;100622.01;1706259;82;21207;-61
2021/10/23 09:31:50;;;;;;;7.20;3.42;;;;;;;14.35;40.96;100613.23;1706747;84;21263;-64
2021/10/23 09:34:55;;;;;;;7.37;3.40;;;;;;;14.37;41.08;100612.48;1698494;82;21338;-63
2021/10/23 09:38:06;;;;;;;8.13;4.78;;;;;;;14.38;40.84;100612.84;1707619;82;21394;-61
2021/10/23 09:41:25;;;;;;;7.33;3.95;;;;;;;14.35;40.86;100620.95;1706795;84;21247;-63
2021/10/23 09:44:30;;;;;;;8.55;3.83;;;;;;;14.32;41.20;100630.98;1691752;82;21374;-57
2021/10/23 09:47:47;;;;;;;10.98;5.25;;;;;;;14.32;41.20;100632.87;1669797;82;21397;-58
2021/10/23 09:50:53;;;;;;;6.70;3.62;;;;;;;14.35;41.48;100629.76;1650664;87;21209;-63
2021/10/23 09:54:09;;;;;;;11.08;3.92;;;;;;;14.38;41.22;100631.57;1706777;82;21342;-62
2021/10/23 09:57:21;;;;;;;17.82;7.60;;;;;;;14.40;41.49;100641.02;1712597;83;21315;-62
2021/10/23 10:00:27;;;;;;;11.12;4.37;;;;;;;14.41;41.52;100634.48;1712537;83;21268;-62
2021/10/23 10:03:34;;;;;;;7.40;3.62;;;;;;;14.42;41.35;100638.42;1661981;83;21752;-62
2021/10/23 10:06:43;;;;;;;14.38;4.33;;;;;;;14.44;41.41;100636.84;1683793;85;21338;-60
2021/10/23 10:09:49;;;;;;;9.75;4.83;;;;;;;14.51;41.47;100633.62;1683527;84;21424;-60
2021/10/23 10:12:59;;;;;;;9.43;4.78;;;;;;;14.52;41.49;100632.59;1683716;84;21894;-60
2021/10/23 10:16:07;;;;;;;11.43;4.53;;;;;;;14.51;41.88;100635.00;1683607;84;21186;-60
2021/10/23 10:19:14;;;;;;;12.80;5.05;;;;;;;14.47;41.76;100637.31;1683193;84;21267;-59
2021/10/23 10:22:19;;;;;;;10.88;4.67;;;;;;;14.34;41.83;100645.42;1682883;85;21541;-60
2021/10/23 10:25:27;;;;;;;13.18;5.03;;;;;;;14.23;41.78;100639.00;1682909;85;21216;-58
2021/10/23 10:28:34;;;;;;;10.80;4.70;;;;;;;14.18;41.71;100650.25;1683393;84;21355;-59
2021/10/23 10:32:22;;;;;;;9.55;3.70;;;;;;;14.16;40.96;100633.92;1683613;85;21322;-59
2021/10/23 10:35:57;;;;;;;8.50;3.40;;;;;;;14.17;40.66;100648.04;1683882;84;21260;-59
2021/10/23 10:38:58;;;;;;;7.67;3.52;;;;;;;14.22;39.39;100647.45;1693498;83;21333;-58
2021/10/23 10:42:50;;;;;;;9.10;3.75;;;;;;;14.29;39.34;100629.12;1683632;85;21204;-59
2021/10/23 10:45:57;;;;;;;7.55;3.42;;;;;;;14.37;39.03;100635.91;1683860;85;21293;-58
2021/10/23 10:49:04;;;;;;;8.90;3.52;;;;;;;14.35;38.36;100639.39;1685789;81;21224;-61
2021/10/23 10:52:33;;;;;;;13.08;5.87;;;;;;;14.33;38.15;100650.61;1696783;83;21255;-59
2021/10/23 10:55:45;;;;;;;11.28;6.00;;;;;;;14.34;38.33;100644.55;1683158;85;21238;-61
2021/10/23 10:59:03;;;;;;;8.03;4.10;;;;;;;14.26;38.67;100644.66;1668065;85;21362;-60
2021/10/23 11:02:14;;;;;;;13.05;5.22;;;;;;;14.16;39.04;100655.95;1683525;85;21350;-58
2021/10/23 11:05:30;;;;;;;12.00;4.78;;;;;;;14.12;39.49;100637.25;1683834;84;21339;-59
2021/10/23 11:08:39;;;;;;;9.85;4.28;;;;;;;14.16;39.83;100643.55;1683656;84;21395;-60
2021/10/23 11:12:02;;;;;;;21.02;6.25;;;;;;;14.36;39.90;100653.48;1678037;85;21704;-58
2021/10/23 11:15:07;;;;;;;12.18;5.50;;;;;;;14.57;40.14;100650.77;1683099;85;21915;-60
2021/10/23 11:18:14;;;;;;;13.78;6.20;;;;;;;14.70;39.46;100659.16;1683956;84;21365;-60
2021/10/23 11:21:21;;;;;;;13.15;5.83;;;;;;;14.62;39.64;100651.02;1693082;84;21378;-59
2021/10/23 11:24:29;;;;;;;12.70;5.25;;;;;;;14.55;40.09;100648.73;1683346;84;21267;-58
2021/10/23 11:27:50;;;;;;;15.30;5.80;;;;;;;14.54;40.34;100659.44;1683127;84;21195;-59
2021/10/23 11:30:57;;;;;;;10.72;5.47;;;;;;;14.54;40.23;100656.68;1682884;85;21370;-57
2021/10/23 11:34:01;;;;;;;14.60;4.55;;;;;;;14.58;40.55;100661.59;1682739;84;21377;-60
2021/10/23 11:37:16;;;;;;;9.55;4.33;;;;;;;14.68;40.76;100651.64;1686887;84;21253;-60
2021/10/23 11:40:22;;;;;;;11.00;4.60;;;;;;;14.63;41.07;100651.36;1710066;84;21278;-60
2021/10/23 11:43:28;;;;;;;12.05;6.05;;;;;;;14.55;41.39;100655.62;1719715;82;21782;-61
2021/10/23 11:46:36;;;;;;;11.38;5.28;;;;;;;14.54;41.39;100657.51;1710577;83;21228;-59
2021/10/23 11:49:43;;;;;;;11.90;5.25;;;;;;;14.67;41.32;100654.91;1710490;81;21223;-58
2021/10/23 11:52:55;;;;;;;12.60;5.47;;;;;;;14.84;40.89;100670.68;1715086;83;21417;-59
2021/10/23 11:56:06;;;;;;;12.13;5.15;;;;;;;14.82;40.21;100658.98;1659475;85;21268;-59
2021/10/23 11:59:13;;;;;;;11.68;5.17;;;;;;;14.65;40.26;100662.51;1714881;83;21235;-60
2021/10/23 12:02:22;;;;;;;11.18;6.20;;;;;;;14.51;40.63;100668.05;1734444;82;21474;-59
2021/10/23 12:05:37;;;;;;;11.05;5.85;;;;;;;14.41;40.97;100668.37;1735528;82;21209;-59
2021/10/23 12:08:44;;;;;;;9.93;4.92;;;;;;;14.34;41.04;100667.96;1735208;81;21347;-59
2021/10/23 12:11:50;;;;;;;9.53;5.45;;;;;;;14.29;40.47;100673.19;1734762;82;21227;-59
2021/10/23 12:14:56;;;;;;;15.72;5.83;;;;;;;14.23;40.06;100676.17;1710898;82;22018;-59
2021/10/23 12:18:07;;;;;;;14.85;6.80;;;;;;;14.23;40.09;100678.06;1686028;83;21302;-60
2021/10/23 12:21:27;;;;;;;14.83;6.37;;;;;;;14.27;40.31;100682.20;1720504;82;21674;-59
2021/10/23 12:24:42;;;;;;;11.33;5.40;;;;;;;14.38;39.85;100686.66;1691183;82;21737;-59
2021/10/23 12:27:48;;;;;;;13.08;5.03;;;;;;;14.37;39.65;100680.83;1690872;84;21768;-59
2021/10/23 12:31:03;;;;;;;24.18;11.50;;;;;;;14.45;39.79;100698.63;1693674;83;21775;-59
2021/10/23 12:34:13;;;;;;;45.88;20.35;;;;;;;14.61;39.51;100696.16;1691653;85;21239;-59
2021/10/23 12:37:19;;;;;;;51.42;21.12;;;;;;;14.74;39.52;100691.67;1691361;84;21196;-59
2021/10/23 12:40:41;;;;;;;24.25;12.70;;;;;;;14.73;39.53;100690.48;1689663;83;21251;-59
2021/10/23 12:43:47;;;;;;;23.65;10.88;;;;;;;14.56;39.71;100689.86;1648480;85;21231;-58
2021/10/23 12:46:52;;;;;;;27.07;16.70;;;;;;;14.34;40.28;100690.86;1687412;85;21194;-58
2021/10/23 12:49:59;;;;;;;38.50;27.48;;;;;;;14.22;40.46;100706.11;1702419;82;21788;-60
2021/10/23 12:53:05;;;;;;;33.65;20.02;;;;;;;14.08;40.88;100695.14;1707150;82;21222;-59
2021/10/23 12:56:13;;;;;;;51.80;32.33;;;;;;;13.95;41.27;100712.33;1685179;85;21205;-60
2021/10/23 12:59:23;;;;;;;46.37;29.07;;;;;;;13.90;41.69;100713.92;1710603;82;21307;-60
2021/10/23 13:02:28;;;;;;;26.12;15.90;;;;;;;13.87;42.03;100712.41;1743975;82;21331;-60
2021/10/23 13:05:34;;;;;;;17.45;9.03;;;;;;;13.86;42.22;100722.23;1712615;83;21189;-59
2021/10/23 13:08:41;;;;;;;13.88;7.67;;;;;;;13.78;42.10;100716.27;1712297;84;21776;-60
2021/10/23 13:11:48;;;;;;;23.27;10.58;;;;;;;13.70;42.42;100718.28;1711475;83;21804;-58
2021/10/23 13:14:55;;;;;;;22.25;11.10;;;;;;;13.61;42.68;100715.25;1708277;83;21291;-60
2021/10/23 13:18:02;;;;;;;12.13;6.70;;;;;;;13.53;43.08;100717.06;1701729;83;21354;-60
2021/10/23 13:21:14;;;;;;;15.13;7.95;;;;;;;13.49;43.34;100712.95;1701724;84;21355;-60
2021/10/23 13:24:22;;;;;;;27.95;14.87;;;;;;;13.45;43.54;100725.39;1703011;83;21309;-60
2021/10/23 13:27:28;;;;;;;19.20;8.70;;;;;;;13.42;43.90;100722.14;1713585;83;21217;-60
2021/10/23 13:30:35;;;;;;;11.50;6.62;;;;;;;13.38;44.08;100725.78;1649903;87;21170;-59
2021/10/23 13:33:42;;;;;;;12.65;6.37;;;;;;;13.34;44.04;100729.95;1652963;85;21387;-59
2021/10/23 13:36:47;;;;;;;15.83;6.67;;;;;;;13.31;44.18;100728.09;1672810;85;21863;-59
2021/10/23 13:39:53;;;;;;;22.02;10.43;;;;;;;13.31;44.31;100727.58;1655529;85;21289;-59
2021/10/23 13:43:00;;;;;;;28.90;12.47;;;;;;;13.38;44.38;100729.91;1637265;85;21237;-61
2021/10/23 13:46:05;;;;;;;19.80;9.90;;;;;;;13.44;44.40;100731.94;1656494;86;21214;-62
2021/10/23 13:49:11;;;;;;;15.28;7.50;;;;;;;13.47;44.32;100732.08;1655365;85;21245;-59
2021/10/23 13:52:17;;;;;;;35.28;16.02;;;;;;;13.46;44.35;100727.08;1658749;84;21207;-59
2021/10/23 13:55:24;;;;;;;30.80;15.95;;;;;;;13.45;44.61;100735.52;1664380;85;21728;-61
2021/10/23 13:58:30;;;;;;;19.82;10.75;;;;;;;13.44;44.80;100733.31;1665049;85;21215;-60
2021/10/23 14:01:38;;;;;;;11.90;6.70;;;;;;;13.42;44.89;100734.02;1664663;85;21757;-60
2021/10/23 14:04:44;;;;;;;14.75;7.55;;;;;;;13.40;44.82;100742.96;1665087;85;21214;-61
2021/10/23 14:07:54;;;;;;;12.82;6.78;;;;;;;13.33;44.34;100751.59;1664752;85;21172;-60
2021/10/23 14:11:00;;;;;;;20.55;11.57;;;;;;;13.24;44.23;100748.59;1665755;85;21207;-59
2021/10/23 14:14:07;;;;;;;20.43;10.82;;;;;;;13.16;44.56;100756.90;1665410;85;21239;-60
2021/10/23 14:17:15;;;;;;;18.75;9.73;;;;;;;13.09;44.88;100758.69;1665620;85;21346;-60
2021/10/23 14:20:21;;;;;;;17.75;9.23;;;;;;;13.01;45.07;100758.75;1665076;86;21271;-61